sensor_id;sensor_type;location;lat;lon;timestamp;temperature;humidity
78455;SHT31;67751;51.986;5.696;2023-08-20T00:01:12;21.2;71.6
78455;SHT31;67751;51.986;5.696;2023-08-20T00:03:43;21.2;71.7
78455;SHT31;67751;51.986;5.696;2023-08-20T00:06:14;21.2;71.8
78455;SHT31;67751;51.986;5.696;2023-08-20T00:08:43;21.2;71.9
78455;SHT31;67751;51.986;5.696;2023-08-20T00:11:13;21.2;71.8
78455;SHT31;67751;51.986;5.696;2023-08-20T00:13:43;21.1;71.5
78455;SHT31;67751;51.986;5.696;2023-08-20T00:16:16;21.1;71.5
78455;SHT31;67751;51.986;5.696;2023-08-20T00:18:46;21.1;71.5
78455;SHT31;67751;51.986;5.696;2023-08-20T00:21:17;21.1;71.7
78455;SHT31;67751;51.986;5.696;2023-08-20T00:23:47;21.1;71.9
78455;SHT31;67751;51.986;5.696;2023-08-20T00:26:17;21.1;72.4
78455;SHT31;67751;51.986;5.696;2023-08-20T00:28:47;21.1;72.1
78455;SHT31;67751;51.986;5.696;2023-08-20T00:31:17;21.1;72.0
78455;SHT31;67751;51.986;5.696;2023-08-20T00:33:46;21.1;71.8
78455;SHT31;67751;51.986;5.696;2023-08-20T00:36:16;21.1;71.7
78455;SHT31;67751;51.986;5.696;2023-08-20T00:38:45;21.1;71.7
78455;SHT31;67751;51.986;5.696;2023-08-20T00:41:17;21.1;71.8
78455;SHT31;67751;51.986;5.696;2023-08-20T00:43:46;21.1;71.7
78455;SHT31;67751;51.986;5.696;2023-08-20T00:46:16;21.1;71.9
78455;SHT31;67751;51.986;5.696;2023-08-20T00:48:46;21.1;71.8
78455;SHT31;67751;51.986;5.696;2023-08-20T00:51:15;21.0;71.7
78455;SHT31;67751;51.986;5.696;2023-08-20T00:53:45;21.0;71.8
78455;SHT31;67751;51.986;5.696;2023-08-20T00:56:15;21.0;71.6
78455;SHT31;67751;51.986;5.696;2023-08-20T00:58:45;21.0;71.8
78455;SHT31;67751;51.986;5.696;2023-08-20T01:01:15;21.0;71.8
78455;SHT31;67751;51.986;5.696;2023-08-20T01:03:45;21.0;72.2
78455;SHT31;67751;51.986;5.696;2023-08-20T01:06:23;21.0;72.3
78455;SHT31;67751;51.986;5.696;2023-08-20T01:09:04;21.0;72.4
78455;SHT31;67751;51.986;5.696;2023-08-20T01:11:40;21.0;72.6
78455;SHT31;67751;51.986;5.696;2023-08-20T01:14:16;21.0;72.2
78455;SHT31;67751;51.986;5.696;2023-08-20T01:16:46;21.0;72.5
78455;SHT31;67751;51.986;5.696;2023-08-20T01:19:19;21.0;72.6
78455;SHT31;67751;51.986;5.696;2023-08-20T01:22:05;21.0;72.6
78455;SHT31;67751;51.986;5.696;2023-08-20T01:24:46;21.0;72.6
78455;SHT31;67751;51.986;5.696;2023-08-20T01:30:09;21.0;73.0
78455;SHT31;67751;51.986;5.696;2023-08-20T01:32:39;21.0;72.8
78455;SHT31;67751;51.986;5.696;2023-08-20T01:35:12;21.0;72.8
78455;SHT31;67751;51.986;5.696;2023-08-20T01:37:42;21.0;72.5
78455;SHT31;67751;51.986;5.696;2023-08-20T01:40:14;21.0;72.5
78455;SHT31;67751;51.986;5.696;2023-08-20T01:42:44;21.0;72.1
78455;SHT31;67751;51.986;5.696;2023-08-20T01:45:13;21.0;72.0
78455;SHT31;67751;51.986;5.696;2023-08-20T01:47:45;21.0;72.3
78455;SHT31;67751;51.986;5.696;2023-08-20T01:50:15;21.0;72.2
78455;SHT31;67751;51.986;5.696;2023-08-20T01:52:44;21.0;72.2
78455;SHT31;67751;51.986;5.696;2023-08-20T01:55:14;21.0;72.1
78455;SHT31;67751;51.986;5.696;2023-08-20T01:57:44;21.0;72.1
78455;SHT31;67751;51.986;5.696;2023-08-20T02:00:14;21.0;72.0
78455;SHT31;67751;51.986;5.696;2023-08-20T02:02:44;21.0;71.8
78455;SHT31;67751;51.986;5.696;2023-08-20T02:05:14;20.9;71.8
78455;SHT31;67751;51.986;5.696;2023-08-20T02:07:43;20.9;71.8
78455;SHT31;67751;51.986;5.696;2023-08-20T02:10:13;20.9;71.8
78455;SHT31;67751;51.986;5.696;2023-08-20T02:12:43;20.9;71.9
78455;SHT31;67751;51.986;5.696;2023-08-20T02:15:13;20.8;71.8
78455;SHT31;67751;51.986;5.696;2023-08-20T02:17:42;20.8;72.0
78455;SHT31;67751;51.986;5.696;2023-08-20T02:20:12;20.8;72.3
78455;SHT31;67751;51.986;5.696;2023-08-20T02:22:42;20.8;72.3
78455;SHT31;67751;51.986;5.696;2023-08-20T02:25:12;20.8;72.3
78455;SHT31;67751;51.986;5.696;2023-08-20T02:27:41;20.8;71.9
78455;SHT31;67751;51.986;5.696;2023-08-20T02:30:11;20.8;72.2
78455;SHT31;67751;51.986;5.696;2023-08-20T02:32:44;20.8;71.8
78455;SHT31;67751;51.986;5.696;2023-08-20T02:35:16;20.7;71.9
78455;SHT31;67751;51.986;5.696;2023-08-20T02:37:48;20.7;71.6
78455;SHT31;67751;51.986;5.696;2023-08-20T02:40:18;20.7;71.6
78455;SHT31;67751;51.986;5.696;2023-08-20T02:42:47;20.7;71.8
78455;SHT31;67751;51.986;5.696;2023-08-20T02:45:17;20.6;71.6
78455;SHT31;67751;51.986;5.696;2023-08-20T02:47:47;20.6;71.2
78455;SHT31;67751;51.986;5.696;2023-08-20T02:50:17;20.6;71.4
78455;SHT31;67751;51.986;5.696;2023-08-20T02:52:46;20.6;71.6
78455;SHT31;67751;51.986;5.696;2023-08-20T02:55:16;20.5;71.9
78455;SHT31;67751;51.986;5.696;2023-08-20T02:57:46;20.5;71.9
78455;SHT31;67751;51.986;5.696;2023-08-20T03:00:16;20.5;71.8
78455;SHT31;67751;51.986;5.696;2023-08-20T03:02:46;20.5;71.7
78455;SHT31;67751;51.986;5.696;2023-08-20T03:05:15;20.5;71.8
78455;SHT31;67751;51.986;5.696;2023-08-20T03:07:45;20.4;71.9
78455;SHT31;67751;51.986;5.696;2023-08-20T03:10:15;20.4;72.0
78455;SHT31;67751;51.986;5.696;2023-08-20T03:12:44;20.4;72.0
78455;SHT31;67751;51.986;5.696;2023-08-20T03:15:18;20.4;72.3
78455;SHT31;67751;51.986;5.696;2023-08-20T03:17:48;20.4;72.1
78455;SHT31;67751;51.986;5.696;2023-08-20T03:20:20;20.3;72.2
78455;SHT31;67751;51.986;5.696;2023-08-20T03:22:50;20.3;72.3
78455;SHT31;67751;51.986;5.696;2023-08-20T03:25:19;20.3;72.4
78455;SHT31;67751;51.986;5.696;2023-08-20T03:27:49;20.3;72.5
78455;SHT31;67751;51.986;5.696;2023-08-20T03:30:19;20.3;72.7
78455;SHT31;67751;51.986;5.696;2023-08-20T03:32:48;20.3;72.4
78455;SHT31;67751;51.986;5.696;2023-08-20T03:35:18;20.3;71.8
78455;SHT31;67751;51.986;5.696;2023-08-20T03:37:48;20.3;72.0
78455;SHT31;67751;51.986;5.696;2023-08-20T03:40:17;20.2;71.9
78455;SHT31;67751;51.986;5.696;2023-08-20T03:42:47;20.2;72.2
78455;SHT31;67751;51.986;5.696;2023-08-20T03:45:17;20.2;71.9
78455;SHT31;67751;51.986;5.696;2023-08-20T03:47:46;20.2;72.0
78455;SHT31;67751;51.986;5.696;2023-08-20T03:50:18;20.2;72.2
78455;SHT31;67751;51.986;5.696;2023-08-20T03:52:48;20.2;72.5
78455;SHT31;67751;51.986;5.696;2023-08-20T03:55:17;20.1;72.4
78455;SHT31;67751;51.986;5.696;2023-08-20T03:57:47;20.1;72.5
78455;SHT31;67751;51.986;5.696;2023-08-20T04:00:17;20.1;72.5
78455;SHT31;67751;51.986;5.696;2023-08-20T04:02:46;20.1;72.7
78455;SHT31;67751;51.986;5.696;2023-08-20T04:05:16;20.1;72.7
78455;SHT31;67751;51.986;5.696;2023-08-20T04:07:46;20.1;72.6
78455;SHT31;67751;51.986;5.696;2023-08-20T04:10:15;20.1;72.5
78455;SHT31;67751;51.986;5.696;2023-08-20T04:12:45;20.1;72.4
78455;SHT31;67751;51.986;5.696;2023-08-20T04:15:15;20.1;72.4
78455;SHT31;67751;51.986;5.696;2023-08-20T04:17:44;20.1;72.1
78455;SHT31;67751;51.986;5.696;2023-08-20T04:20:17;20.0;72.4
78455;SHT31;67751;51.986;5.696;2023-08-20T04:22:46;20.0;72.3
78455;SHT31;67751;51.986;5.696;2023-08-20T04:25:16;20.0;72.7
78455;SHT31;67751;51.986;5.696;2023-08-20T04:27:46;20.0;72.6
78455;SHT31;67751;51.986;5.696;2023-08-20T04:30:15;20.0;72.7
78455;SHT31;67751;51.986;5.696;2023-08-20T04:32:45;20.0;72.7
78455;SHT31;67751;51.986;5.696;2023-08-20T04:35:16;20.0;72.6
78455;SHT31;67751;51.986;5.696;2023-08-20T04:37:46;20.0;72.4
78455;SHT31;67751;51.986;5.696;2023-08-20T04:40:18;19.9;72.6
78455;SHT31;67751;51.986;5.696;2023-08-20T04:42:49;19.9;72.7
78455;SHT31;67751;51.986;5.696;2023-08-20T04:45:19;19.9;72.1
78455;SHT31;67751;51.986;5.696;2023-08-20T04:47:49;19.9;72.2
78455;SHT31;67751;51.986;5.696;2023-08-20T04:50:18;19.9;72.4
78455;SHT31;67751;51.986;5.696;2023-08-20T04:52:48;19.9;72.6
78455;SHT31;67751;51.986;5.696;2023-08-20T04:55:17;19.9;72.3
78455;SHT31;67751;51.986;5.696;2023-08-20T04:57:47;19.8;72.4
78455;SHT31;67751;51.986;5.696;2023-08-20T05:00:18;19.8;72.4
78455;SHT31;67751;51.986;5.696;2023-08-20T05:02:49;19.8;72.4
78455;SHT31;67751;51.986;5.696;2023-08-20T05:05:18;19.8;72.3
78455;SHT31;67751;51.986;5.696;2023-08-20T05:07:50;19.8;72.9
78455;SHT31;67751;51.986;5.696;2023-08-20T05:10:19;19.7;72.5
78455;SHT31;67751;51.986;5.696;2023-08-20T05:12:51;19.7;72.6
78455;SHT31;67751;51.986;5.696;2023-08-20T05:15:21;19.7;72.8
78455;SHT31;67751;51.986;5.696;2023-08-20T05:17:50;19.7;73.2
78455;SHT31;67751;51.986;5.696;2023-08-20T05:20:20;19.7;73.3
78455;SHT31;67751;51.986;5.696;2023-08-20T05:22:49;19.7;73.5
78455;SHT31;67751;51.986;5.696;2023-08-20T05:25:19;19.7;73.1
78455;SHT31;67751;51.986;5.696;2023-08-20T05:27:49;19.7;73.1
78455;SHT31;67751;51.986;5.696;2023-08-20T05:30:19;19.7;73.2
78455;SHT31;67751;51.986;5.696;2023-08-20T05:32:48;19.7;73.3
78455;SHT31;67751;51.986;5.696;2023-08-20T05:35:18;19.7;73.2
78455;SHT31;67751;51.986;5.696;2023-08-20T05:37:48;19.7;73.2
78455;SHT31;67751;51.986;5.696;2023-08-20T05:40:19;19.7;73.6
78455;SHT31;67751;51.986;5.696;2023-08-20T05:42:49;19.7;73.8
78455;SHT31;67751;51.986;5.696;2023-08-20T05:45:19;19.7;73.8
78455;SHT31;67751;51.986;5.696;2023-08-20T05:47:49;19.7;74.3
78455;SHT31;67751;51.986;5.696;2023-08-20T05:50:18;19.7;74.5
78455;SHT31;67751;51.986;5.696;2023-08-20T05:52:48;19.7;74.7
78455;SHT31;67751;51.986;5.696;2023-08-20T05:55:18;19.7;74.9
78455;SHT31;67751;51.986;5.696;2023-08-20T05:57:47;19.8;75.1
78455;SHT31;67751;51.986;5.696;2023-08-20T06:00:17;19.8;75.1
78455;SHT31;67751;51.986;5.696;2023-08-20T06:02:47;19.8;75.1
78455;SHT31;67751;51.986;5.696;2023-08-20T06:05:18;19.8;75.3
78455;SHT31;67751;51.986;5.696;2023-08-20T06:07:47;19.9;75.2
78455;SHT31;67751;51.986;5.696;2023-08-20T06:10:17;19.9;75.2
78455;SHT31;67751;51.986;5.696;2023-08-20T06:12:47;19.9;75.1
78455;SHT31;67751;51.986;5.696;2023-08-20T06:15:16;19.9;75.0
78455;SHT31;67751;51.986;5.696;2023-08-20T06:17:46;20.0;75.2
78455;SHT31;67751;51.986;5.696;2023-08-20T06:20:16;20.0;75.0
78455;SHT31;67751;51.986;5.696;2023-08-20T06:22:46;20.0;75.2
78455;SHT31;67751;51.986;5.696;2023-08-20T06:25:15;20.0;75.0
78455;SHT31;67751;51.986;5.696;2023-08-20T06:27:45;20.1;75.1
78455;SHT31;67751;51.986;5.696;2023-08-20T06:30:17;20.1;75.1
78455;SHT31;67751;51.986;5.696;2023-08-20T06:32:47;20.1;75.1
78455;SHT31;67751;51.986;5.696;2023-08-20T06:35:17;20.1;75.0
78455;SHT31;67751;51.986;5.696;2023-08-20T06:37:48;20.1;75.1
78455;SHT31;67751;51.986;5.696;2023-08-20T06:40:18;20.2;75.2
78455;SHT31;67751;51.986;5.696;2023-08-20T06:42:48;20.2;75.2
78455;SHT31;67751;51.986;5.696;2023-08-20T06:45:18;20.2;75.5
78455;SHT31;67751;51.986;5.696;2023-08-20T06:47:47;20.2;75.7
78455;SHT31;67751;51.986;5.696;2023-08-20T06:50:17;20.2;75.9
78455;SHT31;67751;51.986;5.696;2023-08-20T06:52:47;20.2;75.4
78455;SHT31;67751;51.986;5.696;2023-08-20T06:55:16;20.3;75.4
78455;SHT31;67751;51.986;5.696;2023-08-20T06:57:48;20.3;75.3
78455;SHT31;67751;51.986;5.696;2023-08-20T07:00:18;20.3;75.3
78455;SHT31;67751;51.986;5.696;2023-08-20T07:02:48;20.3;75.3
78455;SHT31;67751;51.986;5.696;2023-08-20T07:05:17;20.3;75.2
78455;SHT31;67751;51.986;5.696;2023-08-20T07:07:48;20.3;75.0
78455;SHT31;67751;51.986;5.696;2023-08-20T07:10:17;20.4;75.3
78455;SHT31;67751;51.986;5.696;2023-08-20T07:12:47;20.4;75.3
78455;SHT31;67751;51.986;5.696;2023-08-20T07:15:17;20.4;75.6
78455;SHT31;67751;51.986;5.696;2023-08-20T07:17:46;20.5;75.7
78455;SHT31;67751;51.986;5.696;2023-08-20T07:20:16;20.5;75.2
78455;SHT31;67751;51.986;5.696;2023-08-20T07:22:46;20.5;74.4
78455;SHT31;67751;51.986;5.696;2023-08-20T07:25:16;20.6;73.8
78455;SHT31;67751;51.986;5.696;2023-08-20T07:27:45;20.6;73.8
78455;SHT31;67751;51.986;5.696;2023-08-20T07:30:15;20.6;73.8
78455;SHT31;67751;51.986;5.696;2023-08-20T07:32:45;20.6;73.9
78455;SHT31;67751;51.986;5.696;2023-08-20T07:35:16;20.7;74.0
78455;SHT31;67751;51.986;5.696;2023-08-20T07:37:46;20.7;74.6
78455;SHT31;67751;51.986;5.696;2023-08-20T07:40:16;20.7;74.7
78455;SHT31;67751;51.986;5.696;2023-08-20T07:42:46;20.8;74.6
78455;SHT31;67751;51.986;5.696;2023-08-20T07:45:16;20.8;74.0
78455;SHT31;67751;51.986;5.696;2023-08-20T07:47:46;20.9;73.1
78455;SHT31;67751;51.986;5.696;2023-08-20T07:50:15;20.9;73.5
78455;SHT31;67751;51.986;5.696;2023-08-20T07:52:45;21.0;73.7
78455;SHT31;67751;51.986;5.696;2023-08-20T07:55:15;21.0;73.4
78455;SHT31;67751;51.986;5.696;2023-08-20T07:57:45;21.1;73.2
78455;SHT31;67751;51.986;5.696;2023-08-20T08:00:17;21.1;73.8
78455;SHT31;67751;51.986;5.696;2023-08-20T08:02:47;21.1;72.9
78455;SHT31;67751;51.986;5.696;2023-08-20T08:05:17;21.2;72.6
78455;SHT31;67751;51.986;5.696;2023-08-20T08:07:46;21.2;72.9
78455;SHT31;67751;51.986;5.696;2023-08-20T08:10:16;21.3;73.1
78455;SHT31;67751;51.986;5.696;2023-08-20T08:12:45;21.3;72.8
78455;SHT31;67751;51.986;5.696;2023-08-20T08:15:15;21.4;72.6
78455;SHT31;67751;51.986;5.696;2023-08-20T08:17:45;21.4;72.2
78455;SHT31;67751;51.986;5.696;2023-08-20T08:20:17;21.5;72.7
78455;SHT31;67751;51.986;5.696;2023-08-20T08:22:46;21.5;72.6
78455;SHT31;67751;51.986;5.696;2023-08-20T08:25:16;21.5;72.4
78455;SHT31;67751;51.986;5.696;2023-08-20T08:27:46;21.6;71.4
78455;SHT31;67751;51.986;5.696;2023-08-20T08:30:18;21.6;72.0
78455;SHT31;67751;51.986;5.696;2023-08-20T08:32:47;21.7;72.2
78455;SHT31;67751;51.986;5.696;2023-08-20T08:35:17;21.7;70.8
78455;SHT31;67751;51.986;5.696;2023-08-20T08:37:47;21.8;71.0
78455;SHT31;67751;51.986;5.696;2023-08-20T08:40:17;21.8;71.1
78455;SHT31;67751;51.986;5.696;2023-08-20T08:42:49;21.9;71.4
78455;SHT31;67751;51.986;5.696;2023-08-20T08:45:20;21.9;70.2
78455;SHT31;67751;51.986;5.696;2023-08-20T08:47:51;22.0;70.3
78455;SHT31;67751;51.986;5.696;2023-08-20T08:50:23;22.0;69.5
78455;SHT31;67751;51.986;5.696;2023-08-20T08:52:53;22.0;69.0
78455;SHT31;67751;51.986;5.696;2023-08-20T08:55:24;22.1;69.9
78455;SHT31;67751;51.986;5.696;2023-08-20T08:57:54;22.2;67.5
78455;SHT31;67751;51.986;5.696;2023-08-20T09:00:24;22.2;69.1
78455;SHT31;67751;51.986;5.696;2023-08-20T09:02:53;22.3;68.7
78455;SHT31;67751;51.986;5.696;2023-08-20T09:05:23;22.4;68.8
78455;SHT31;67751;51.986;5.696;2023-08-20T09:07:57;22.4;68.8
78455;SHT31;67751;51.986;5.696;2023-08-20T09:10:29;22.5;66.9
78455;SHT31;67751;51.986;5.696;2023-08-20T09:13:00;22.5;68.1
78455;SHT31;67751;51.986;5.696;2023-08-20T09:15:33;22.6;67.8
78455;SHT31;67751;51.986;5.696;2023-08-20T09:18:03;22.7;65.2
78455;SHT31;67751;51.986;5.696;2023-08-20T09:20:37;22.7;66.2
78455;SHT31;67751;51.986;5.696;2023-08-20T09:23:12;22.8;66.4
78455;SHT31;67751;51.986;5.696;2023-08-20T09:25:43;22.8;66.2
78455;SHT31;67751;51.986;5.696;2023-08-20T09:28:14;22.9;66.9
78455;SHT31;67751;51.986;5.696;2023-08-20T09:30:56;23.0;66.4
78455;SHT31;67751;51.986;5.696;2023-08-20T09:33:26;23.0;65.1
78455;SHT31;67751;51.986;5.696;2023-08-20T09:35:55;23.1;65.4
78455;SHT31;67751;51.986;5.696;2023-08-20T09:38:25;23.1;66.0
78455;SHT31;67751;51.986;5.696;2023-08-20T09:40:55;23.2;64.6
78455;SHT31;67751;51.986;5.696;2023-08-20T09:43:30;23.2;64.5
78455;SHT31;67751;51.986;5.696;2023-08-20T09:46:04;23.3;63.6
78455;SHT31;67751;51.986;5.696;2023-08-20T09:48:35;23.3;62.8
78455;SHT31;67751;51.986;5.696;2023-08-20T09:51:11;23.4;62.7
78455;SHT31;67751;51.986;5.696;2023-08-20T09:53:47;23.4;58.8
78455;SHT31;67751;51.986;5.696;2023-08-20T09:56:24;23.5;62.0
78455;SHT31;67751;51.986;5.696;2023-08-20T09:58:57;23.5;61.2
78455;SHT31;67751;51.986;5.696;2023-08-20T10:01:29;23.6;59.8
78455;SHT31;67751;51.986;5.696;2023-08-20T10:04:00;23.6;59.7
78455;SHT31;67751;51.986;5.696;2023-08-20T10:06:30;23.7;60.5
78455;SHT31;67751;51.986;5.696;2023-08-20T10:09:02;23.7;60.5
78455;SHT31;67751;51.986;5.696;2023-08-20T10:11:32;23.8;59.5
78455;SHT31;67751;51.986;5.696;2023-08-20T10:14:02;23.8;58.6
78455;SHT31;67751;51.986;5.696;2023-08-20T10:16:32;23.8;59.9
78455;SHT31;67751;51.986;5.696;2023-08-20T10:19:05;23.9;59.7
78455;SHT31;67751;51.986;5.696;2023-08-20T10:21:36;23.9;57.5
78455;SHT31;67751;51.986;5.696;2023-08-20T10:24:06;23.9;55.5
78455;SHT31;67751;51.986;5.696;2023-08-20T10:26:36;24.0;56.1
78455;SHT31;67751;51.986;5.696;2023-08-20T10:29:36;24.0;58.8
78455;SHT31;67751;51.986;5.696;2023-08-20T10:32:09;24.1;59.1
78455;SHT31;67751;51.986;5.696;2023-08-20T10:34:43;24.1;57.4
78455;SHT31;67751;51.986;5.696;2023-08-20T10:37:32;24.2;55.5
78455;SHT31;67751;51.986;5.696;2023-08-20T10:40:04;24.2;55.3
78455;SHT31;67751;51.986;5.696;2023-08-20T10:42:41;24.3;57.6
78455;SHT31;67751;51.986;5.696;2023-08-20T10:45:12;24.3;56.8
78455;SHT31;67751;51.986;5.696;2023-08-20T10:47:44;24.4;53.8
78455;SHT31;67751;51.986;5.696;2023-08-20T10:50:18;24.4;55.7
78455;SHT31;67751;51.986;5.696;2023-08-20T10:52:55;24.4;55.9
78455;SHT31;67751;51.986;5.696;2023-08-20T10:55:25;24.5;55.6
78455;SHT31;67751;51.986;5.696;2023-08-20T10:57:59;24.5;55.9
78455;SHT31;67751;51.986;5.696;2023-08-20T11:00:29;24.6;55.8
78455;SHT31;67751;51.986;5.696;2023-08-20T11:02:59;24.6;55.3
78455;SHT31;67751;51.986;5.696;2023-08-20T11:05:30;24.6;56.3
78455;SHT31;67751;51.986;5.696;2023-08-20T11:08:00;24.7;56.4
78455;SHT31;67751;51.986;5.696;2023-08-20T11:10:35;24.7;56.1
78455;SHT31;67751;51.986;5.696;2023-08-20T11:13:04;24.7;54.3
78455;SHT31;67751;51.986;5.696;2023-08-20T11:15:35;24.7;57.3
78455;SHT31;67751;51.986;5.696;2023-08-20T11:18:06;24.8;56.1
78455;SHT31;67751;51.986;5.696;2023-08-20T11:20:36;24.8;55.6
78455;SHT31;67751;51.986;5.696;2023-08-20T11:23:08;24.8;54.2
78455;SHT31;67751;51.986;5.696;2023-08-20T11:25:42;24.8;53.5
78455;SHT31;67751;51.986;5.696;2023-08-20T11:28:12;24.8;53.5
78455;SHT31;67751;51.986;5.696;2023-08-20T11:30:42;24.9;53.7
78455;SHT31;67751;51.986;5.696;2023-08-20T11:33:12;24.9;53.6
78455;SHT31;67751;51.986;5.696;2023-08-20T11:35:42;24.9;53.8
78455;SHT31;67751;51.986;5.696;2023-08-20T11:38:13;24.9;52.5
78455;SHT31;67751;51.986;5.696;2023-08-20T11:40:43;24.9;51.3
78455;SHT31;67751;51.986;5.696;2023-08-20T11:43:13;25.0;50.1
78455;SHT31;67751;51.986;5.696;2023-08-20T11:45:48;25.0;48.5
78455;SHT31;67751;51.986;5.696;2023-08-20T11:48:20;25.0;47.9
78455;SHT31;67751;51.986;5.696;2023-08-20T11:50:50;25.1;48.7
78455;SHT31;67751;51.986;5.696;2023-08-20T11:53:22;25.1;50.0
78455;SHT31;67751;51.986;5.696;2023-08-20T11:55:54;25.2;50.1
78455;SHT31;67751;51.986;5.696;2023-08-20T11:58:24;25.2;50.6
78455;SHT31;67751;51.986;5.696;2023-08-20T12:00:54;25.2;50.1
78455;SHT31;67751;51.986;5.696;2023-08-20T12:03:29;25.3;50.6
78455;SHT31;67751;51.986;5.696;2023-08-20T12:05:59;25.3;52.1
78455;SHT31;67751;51.986;5.696;2023-08-20T12:08:38;25.3;52.1
78455;SHT31;67751;51.986;5.696;2023-08-20T12:11:08;25.4;50.3
78455;SHT31;67751;51.986;5.696;2023-08-20T12:13:38;25.4;51.5
78455;SHT31;67751;51.986;5.696;2023-08-20T12:16:08;25.4;52.3
78455;SHT31;67751;51.986;5.696;2023-08-20T12:18:37;25.4;53.1
78455;SHT31;67751;51.986;5.696;2023-08-20T12:21:08;25.4;52.5
78455;SHT31;67751;51.986;5.696;2023-08-20T12:23:37;25.4;52.0
78455;SHT31;67751;51.986;5.696;2023-08-20T12:26:07;25.5;50.3
78455;SHT31;67751;51.986;5.696;2023-08-20T12:28:37;25.5;50.6
78455;SHT31;67751;51.986;5.696;2023-08-20T12:31:09;25.5;52.2
78455;SHT31;67751;51.986;5.696;2023-08-20T12:33:38;25.5;52.8
78455;SHT31;67751;51.986;5.696;2023-08-20T12:36:10;25.5;53.5
78455;SHT31;67751;51.986;5.696;2023-08-20T12:38:39;25.5;50.5
78455;SHT31;67751;51.986;5.696;2023-08-20T12:41:09;25.5;52.5
78455;SHT31;67751;51.986;5.696;2023-08-20T12:43:39;25.5;49.5
78455;SHT31;67751;51.986;5.696;2023-08-20T12:46:09;25.5;50.4
78455;SHT31;67751;51.986;5.696;2023-08-20T12:48:39;25.5;51.4
78455;SHT31;67751;51.986;5.696;2023-08-20T12:51:09;25.5;52.0
78455;SHT31;67751;51.986;5.696;2023-08-20T12:53:41;25.5;52.5
78455;SHT31;67751;51.986;5.696;2023-08-20T12:56:11;25.5;52.6
78455;SHT31;67751;51.986;5.696;2023-08-20T12:58:41;25.5;50.2
78455;SHT31;67751;51.986;5.696;2023-08-20T13:01:11;25.5;48.9
78455;SHT31;67751;51.986;5.696;2023-08-20T13:03:42;25.5;51.2
78455;SHT31;67751;51.986;5.696;2023-08-20T13:06:12;25.5;48.7
78455;SHT31;67751;51.986;5.696;2023-08-20T13:08:43;25.5;51.3
78455;SHT31;67751;51.986;5.696;2023-08-20T13:11:17;25.5;51.6
78455;SHT31;67751;51.986;5.696;2023-08-20T13:13:49;25.5;51.8
78455;SHT31;67751;51.986;5.696;2023-08-20T13:16:22;25.5;52.0
78455;SHT31;67751;51.986;5.696;2023-08-20T13:18:53;25.5;52.5
78455;SHT31;67751;51.986;5.696;2023-08-20T13:21:22;25.5;51.7
78455;SHT31;67751;51.986;5.696;2023-08-20T13:23:52;25.5;53.2
78455;SHT31;67751;51.986;5.696;2023-08-20T13:26:22;25.5;49.8
78455;SHT31;67751;51.986;5.696;2023-08-20T13:28:52;25.5;50.1
78455;SHT31;67751;51.986;5.696;2023-08-20T13:31:21;25.5;49.9
78455;SHT31;67751;51.986;5.696;2023-08-20T13:33:51;25.5;51.1
78455;SHT31;67751;51.986;5.696;2023-08-20T13:36:21;25.5;50.5
78455;SHT31;67751;51.986;5.696;2023-08-20T13:38:50;25.5;50.8
78455;SHT31;67751;51.986;5.696;2023-08-20T13:41:20;25.5;51.5
78455;SHT31;67751;51.986;5.696;2023-08-20T13:43:49;25.5;50.9
78455;SHT31;67751;51.986;5.696;2023-08-20T13:46:19;25.6;50.3
78455;SHT31;67751;51.986;5.696;2023-08-20T13:48:49;25.6;51.1
78455;SHT31;67751;51.986;5.696;2023-08-20T13:51:18;25.6;51.3
78455;SHT31;67751;51.986;5.696;2023-08-20T13:53:48;25.6;48.7
78455;SHT31;67751;51.986;5.696;2023-08-20T13:56:17;25.6;48.3
78455;SHT31;67751;51.986;5.696;2023-08-20T13:58:47;25.6;50.6
78455;SHT31;67751;51.986;5.696;2023-08-20T14:01:16;25.6;50.6
78455;SHT31;67751;51.986;5.696;2023-08-20T14:03:47;25.6;49.9
78455;SHT31;67751;51.986;5.696;2023-08-20T14:06:17;25.6;50.3
78455;SHT31;67751;51.986;5.696;2023-08-20T14:08:47;25.6;51.6
78455;SHT31;67751;51.986;5.696;2023-08-20T14:11:17;25.6;52.1
78455;SHT31;67751;51.986;5.696;2023-08-20T14:13:47;25.6;51.1
78455;SHT31;67751;51.986;5.696;2023-08-20T14:16:17;25.6;51.1
78455;SHT31;67751;51.986;5.696;2023-08-20T14:18:46;25.6;52.3
78455;SHT31;67751;51.986;5.696;2023-08-20T14:21:16;25.6;48.8
78455;SHT31;67751;51.986;5.696;2023-08-20T14:23:46;25.5;49.7
78455;SHT31;67751;51.986;5.696;2023-08-20T14:26:15;25.5;49.7
78455;SHT31;67751;51.986;5.696;2023-08-20T14:28:45;25.5;50.5
78455;SHT31;67751;51.986;5.696;2023-08-20T14:31:15;25.5;51.5
78455;SHT31;67751;51.986;5.696;2023-08-20T14:33:46;25.5;50.7
78455;SHT31;67751;51.986;5.696;2023-08-20T14:36:16;25.5;51.1
78455;SHT31;67751;51.986;5.696;2023-08-20T14:38:47;25.5;48.6
78455;SHT31;67751;51.986;5.696;2023-08-20T14:41:17;25.6;50.5
78455;SHT31;67751;51.986;5.696;2023-08-20T14:43:46;25.6;51.2
78455;SHT31;67751;51.986;5.696;2023-08-20T14:46:16;25.6;50.2
78455;SHT31;67751;51.986;5.696;2023-08-20T14:48:45;25.6;50.1
78455;SHT31;67751;51.986;5.696;2023-08-20T14:51:17;25.6;50.0
78455;SHT31;67751;51.986;5.696;2023-08-20T14:53:46;25.6;50.6
78455;SHT31;67751;51.986;5.696;2023-08-20T14:56:16;25.6;49.9
78455;SHT31;67751;51.986;5.696;2023-08-20T14:58:46;25.6;50.4
78455;SHT31;67751;51.986;5.696;2023-08-20T15:01:15;25.6;50.2
78455;SHT31;67751;51.986;5.696;2023-08-20T15:03:45;25.6;50.6
78455;SHT31;67751;51.986;5.696;2023-08-20T15:06:15;25.6;50.7
78455;SHT31;67751;51.986;5.696;2023-08-20T15:08:49;25.6;51.0
78455;SHT31;67751;51.986;5.696;2023-08-20T15:11:20;25.6;51.7
78455;SHT31;67751;51.986;5.696;2023-08-20T15:13:50;25.6;52.0
78455;SHT31;67751;51.986;5.696;2023-08-20T15:16:20;25.6;50.2
78455;SHT31;67751;51.986;5.696;2023-08-20T15:18:49;25.6;50.6
78455;SHT31;67751;51.986;5.696;2023-08-20T15:21:19;25.7;51.0
78455;SHT31;67751;51.986;5.696;2023-08-20T15:23:49;25.7;51.1
78455;SHT31;67751;51.986;5.696;2023-08-20T15:26:18;25.7;50.9
78455;SHT31;67751;51.986;5.696;2023-08-20T15:28:48;25.7;51.1
78455;SHT31;67751;51.986;5.696;2023-08-20T15:31:18;25.7;51.6
78455;SHT31;67751;51.986;5.696;2023-08-20T15:33:47;25.7;52.0
78455;SHT31;67751;51.986;5.696;2023-08-20T15:36:19;25.7;51.2
78455;SHT31;67751;51.986;5.696;2023-08-20T15:38:49;25.7;50.9
78455;SHT31;67751;51.986;5.696;2023-08-20T15:41:18;25.7;51.1
78455;SHT31;67751;51.986;5.696;2023-08-20T15:43:48;25.7;49.5
78455;SHT31;67751;51.986;5.696;2023-08-20T15:46:18;25.7;49.5
78455;SHT31;67751;51.986;5.696;2023-08-20T15:48:47;25.7;49.6
78455;SHT31;67751;51.986;5.696;2023-08-20T15:51:17;25.8;49.8
78455;SHT31;67751;51.986;5.696;2023-08-20T15:53:47;25.8;50.7
78455;SHT31;67751;51.986;5.696;2023-08-20T15:56:17;25.8;49.8
78455;SHT31;67751;51.986;5.696;2023-08-20T15:58:46;25.8;51.4
78455;SHT31;67751;51.986;5.696;2023-08-20T16:01:16;25.8;50.7
78455;SHT31;67751;51.986;5.696;2023-08-20T16:03:46;25.8;50.7
78455;SHT31;67751;51.986;5.696;2023-08-20T16:06:15;25.8;51.0
78455;SHT31;67751;51.986;5.696;2023-08-20T16:08:45;25.8;51.1
78455;SHT31;67751;51.986;5.696;2023-08-20T16:11:14;25.8;51.4
78455;SHT31;67751;51.986;5.696;2023-08-20T16:13:46;25.8;50.6
78455;SHT31;67751;51.986;5.696;2023-08-20T16:16:16;25.8;50.5
78455;SHT31;67751;51.986;5.696;2023-08-20T16:18:46;25.8;50.0
78455;SHT31;67751;51.986;5.696;2023-08-20T16:21:18;25.8;51.1
78455;SHT31;67751;51.986;5.696;2023-08-20T16:23:48;25.8;51.8
78455;SHT31;67751;51.986;5.696;2023-08-20T16:26:18;25.8;51.2